sensor_id;sensor_type;location;lat;lon;timestamp;temperature;humidity
68476;DHT22;55464;48.266;14.188;2023-02-19T00:01:32;11.20;77.60
68476;DHT22;55464;48.266;14.188;2023-02-19T00:04:00;11.10;78.30
68476;DHT22;55464;48.266;14.188;2023-02-19T00:06:27;11.10;78.60
68476;DHT22;55464;48.266;14.188;2023-02-19T00:08:53;11.10;78.70
68476;DHT22;55464;48.266;14.188;2023-02-19T00:11:21;11.10;79.00
68476;DHT22;55464;48.266;14.188;2023-02-19T00:13:49;11.00;79.50
68476;DHT22;55464;48.266;14.188;2023-02-19T00:16:18;11.10;79.60
68476;DHT22;55464;48.266;14.188;2023-02-19T00:18:45;11.00;79.80
68476;DHT22;55464;48.266;14.188;2023-02-19T00:21:11;10.90;80.40
68476;DHT22;55464;48.266;14.188;2023-02-19T00:23:37;11.00;80.60
68476;DHT22;55464;48.266;14.188;2023-02-19T00:26:07;10.90;80.60
68476;DHT22;55464;48.266;14.188;2023-02-19T00:28:33;10.90;81.00
68476;DHT22;55464;48.266;14.188;2023-02-19T00:31:11;10.90;81.00
68476;DHT22;55464;48.266;14.188;2023-02-19T00:33:39;10.90;81.00
68476;DHT22;55464;48.266;14.188;2023-02-19T00:36:05;10.90;81.10
68476;DHT22;55464;48.266;14.188;2023-02-19T00:38:34;10.80;81.50
68476;DHT22;55464;48.266;14.188;2023-02-19T00:41:01;10.80;81.80
68476;DHT22;55464;48.266;14.188;2023-02-19T00:43:53;10.70;82.10
68476;DHT22;55464;48.266;14.188;2023-02-19T00:46:22;10.70;82.10
68476;DHT22;55464;48.266;14.188;2023-02-19T00:48:48;10.70;82.00
68476;DHT22;55464;48.266;14.188;2023-02-19T00:51:14;10.70;82.10
68476;DHT22;55464;48.266;14.188;2023-02-19T00:53:41;10.80;82.40
68476;DHT22;55464;48.266;14.188;2023-02-19T00:56:07;10.60;83.30
68476;DHT22;55464;48.266;14.188;2023-02-19T00:58:33;10.70;83.00
68476;DHT22;55464;48.266;14.188;2023-02-19T01:00:59;10.50;83.90
68476;DHT22;55464;48.266;14.188;2023-02-19T01:03:24;10.50;84.30
68476;DHT22;55464;48.266;14.188;2023-02-19T01:05:51;10.50;84.70
68476;DHT22;55464;48.266;14.188;2023-02-19T01:08:17;10.40;85.20
68476;DHT22;55464;48.266;14.188;2023-02-19T01:10:43;10.30;85.60
68476;DHT22;55464;48.266;14.188;2023-02-19T01:13:09;10.40;85.60
68476;DHT22;55464;48.266;14.188;2023-02-19T01:15:35;10.40;86.00
68476;DHT22;55464;48.266;14.188;2023-02-19T01:18:01;10.40;86.40
68476;DHT22;55464;48.266;14.188;2023-02-19T01:20:27;10.20;86.70
68476;DHT22;55464;48.266;14.188;2023-02-19T01:22:53;10.30;87.10
68476;DHT22;55464;48.266;14.188;2023-02-19T01:25:19;10.30;87.00
68476;DHT22;55464;48.266;14.188;2023-02-19T01:27:44;10.10;87.60
68476;DHT22;55464;48.266;14.188;2023-02-19T01:30:10;10.20;87.50
68476;DHT22;55464;48.266;14.188;2023-02-19T01:32:36;10.10;87.60
68476;DHT22;55464;48.266;14.188;2023-02-19T01:35:02;10.20;87.50
68476;DHT22;55464;48.266;14.188;2023-02-19T01:37:28;10.30;87.30
68476;DHT22;55464;48.266;14.188;2023-02-19T01:39:53;10.30;87.30
68476;DHT22;55464;48.266;14.188;2023-02-19T01:42:19;10.30;86.90
68476;DHT22;55464;48.266;14.188;2023-02-19T01:47:11;10.30;86.80
68476;DHT22;55464;48.266;14.188;2023-02-19T01:50:00;10.20;87.00
68476;DHT22;55464;48.266;14.188;2023-02-19T01:54:54;10.20;86.60
68476;DHT22;55464;48.266;14.188;2023-02-19T01:57:25;10.20;86.60
68476;DHT22;55464;48.266;14.188;2023-02-19T01:59:55;10.10;86.60
68476;DHT22;55464;48.266;14.188;2023-02-19T02:02:22;10.10;86.70
68476;DHT22;55464;48.266;14.188;2023-02-19T02:04:50;10.10;86.60
68476;DHT22;55464;48.266;14.188;2023-02-19T02:07:16;10.10;86.60
68476;DHT22;55464;48.266;14.188;2023-02-19T02:10:02;10.10;86.70
68476;DHT22;55464;48.266;14.188;2023-02-19T02:12:47;10.10;86.40
68476;DHT22;55464;48.266;14.188;2023-02-19T02:15:14;10.10;86.40
68476;DHT22;55464;48.266;14.188;2023-02-19T02:17:58;10.10;86.30
68476;DHT22;55464;48.266;14.188;2023-02-19T02:31:40;10.10;86.10
68476;DHT22;55464;48.266;14.188;2023-02-19T02:34:13;10.10;86.00
68476;DHT22;55464;48.266;14.188;2023-02-19T02:36:43;10.20;86.00
68476;DHT22;55464;48.266;14.188;2023-02-19T02:39:15;10.10;86.20
68476;DHT22;55464;48.266;14.188;2023-02-19T02:41:44;10.10;86.10
68476;DHT22;55464;48.266;14.188;2023-02-19T02:44:13;10.10;86.00
68476;DHT22;55464;48.266;14.188;2023-02-19T02:46:41;10.10;86.00
68476;DHT22;55464;48.266;14.188;2023-02-19T02:49:16;10.10;86.00
68476;DHT22;55464;48.266;14.188;2023-02-19T02:51:47;10.10;86.10
68476;DHT22;55464;48.266;14.188;2023-02-19T02:54:19;10.10;86.50
68476;DHT22;55464;48.266;14.188;2023-02-19T02:57:05;10.00;87.00
68476;DHT22;55464;48.266;14.188;2023-02-19T02:59:36;10.00;86.60
68476;DHT22;55464;48.266;14.188;2023-02-19T03:02:15;10.10;86.50
68476;DHT22;55464;48.266;14.188;2023-02-19T03:04:49;10.10;86.20
68476;DHT22;55464;48.266;14.188;2023-02-19T03:10:19;10.10;86.50
68476;DHT22;55464;48.266;14.188;2023-02-19T03:12:46;10.10;86.70
68476;DHT22;55464;48.266;14.188;2023-02-19T03:15:38;10.00;86.90
68476;DHT22;55464;48.266;14.188;2023-02-19T03:18:25;10.00;86.90
68476;DHT22;55464;48.266;14.188;2023-02-19T03:21:10;10.10;86.80
68476;DHT22;55464;48.266;14.188;2023-02-19T03:23:37;10.10;86.40
68476;DHT22;55464;48.266;14.188;2023-02-19T03:26:22;10.00;86.60
68476;DHT22;55464;48.266;14.188;2023-02-19T03:28:50;10.00;87.00
68476;DHT22;55464;48.266;14.188;2023-02-19T03:31:37;10.00;87.10
68476;DHT22;55464;48.266;14.188;2023-02-19T03:34:07;10.00;87.00
68476;DHT22;55464;48.266;14.188;2023-02-19T03:36:39;10.00;86.90
68476;DHT22;55464;48.266;14.188;2023-02-19T03:39:08;10.00;86.70
68476;DHT22;55464;48.266;14.188;2023-02-19T03:47:19;9.90;86.70
68476;DHT22;55464;48.266;14.188;2023-02-19T03:49:52;9.90;86.60
68476;DHT22;55464;48.266;14.188;2023-02-19T03:55:42;9.80;86.70
68476;DHT22;55464;48.266;14.188;2023-02-19T03:58:26;9.90;86.50
68476;DHT22;55464;48.266;14.188;2023-02-19T04:01:17;10.00;86.30
68476;DHT22;55464;48.266;14.188;2023-02-19T04:04:20;10.00;86.30
68476;DHT22;55464;48.266;14.188;2023-02-19T04:06:39;9.90;86.10
68476;DHT22;55464;48.266;14.188;2023-02-19T04:09:08;10.00;85.60
68476;DHT22;55464;48.266;14.188;2023-02-19T04:11:36;10.00;86.10
68476;DHT22;55464;48.266;14.188;2023-02-19T04:14:09;10.00;85.50
68476;DHT22;55464;48.266;14.188;2023-02-19T04:16:39;10.00;85.20
68476;DHT22;55464;48.266;14.188;2023-02-19T04:19:12;10.00;84.90
68476;DHT22;55464;48.266;14.188;2023-02-19T04:21:40;10.00;85.00
68476;DHT22;55464;48.266;14.188;2023-02-19T04:24:11;10.00;85.00
68476;DHT22;55464;48.266;14.188;2023-02-19T04:26:39;10.00;85.00
68476;DHT22;55464;48.266;14.188;2023-02-19T04:29:05;10.00;85.10
68476;DHT22;55464;48.266;14.188;2023-02-19T04:31:31;10.10;85.00
68476;DHT22;55464;48.266;14.188;2023-02-19T04:33:59;10.00;84.80
68476;DHT22;55464;48.266;14.188;2023-02-19T04:36:25;10.00;85.00
68476;DHT22;55464;48.266;14.188;2023-02-19T04:38:51;10.10;84.70
68476;DHT22;55464;48.266;14.188;2023-02-19T04:41:16;10.10;84.20
68476;DHT22;55464;48.266;14.188;2023-02-19T04:43:42;10.10;84.30
68476;DHT22;55464;48.266;14.188;2023-02-19T04:46:08;10.10;84.30
68476;DHT22;55464;48.266;14.188;2023-02-19T04:48:33;10.10;84.00
68476;DHT22;55464;48.266;14.188;2023-02-19T04:51:03;10.10;83.80
68476;DHT22;55464;48.266;14.188;2023-02-19T04:53:28;10.20;83.40
68476;DHT22;55464;48.266;14.188;2023-02-19T04:55:54;10.20;83.40
68476;DHT22;55464;48.266;14.188;2023-02-19T04:58:20;10.20;83.30
68476;DHT22;55464;48.266;14.188;2023-02-19T05:00:46;10.30;83.10
68476;DHT22;55464;48.266;14.188;2023-02-19T05:03:15;10.30;82.90
68476;DHT22;55464;48.266;14.188;2023-02-19T05:05:40;10.30;82.70
68476;DHT22;55464;48.266;14.188;2023-02-19T05:08:06;10.30;82.90
68476;DHT22;55464;48.266;14.188;2023-02-19T05:10:32;10.30;82.70
68476;DHT22;55464;48.266;14.188;2023-02-19T05:12:58;10.30;82.50
68476;DHT22;55464;48.266;14.188;2023-02-19T05:15:23;10.20;82.40
68476;DHT22;55464;48.266;14.188;2023-02-19T05:17:49;10.20;83.10
68476;DHT22;55464;48.266;14.188;2023-02-19T05:20:14;10.20;83.00
68476;DHT22;55464;48.266;14.188;2023-02-19T05:22:40;10.30;82.90
68476;DHT22;55464;48.266;14.188;2023-02-19T05:25:06;10.30;82.60
68476;DHT22;55464;48.266;14.188;2023-02-19T05:27:32;10.20;83.20
68476;DHT22;55464;48.266;14.188;2023-02-19T05:29:57;10.30;83.00
68476;DHT22;55464;48.266;14.188;2023-02-19T05:32:23;10.10;83.30
68476;DHT22;55464;48.266;14.188;2023-02-19T05:34:50;10.20;83.30
68476;DHT22;55464;48.266;14.188;2023-02-19T05:37:15;10.20;83.50
68476;DHT22;55464;48.266;14.188;2023-02-19T05:39:41;10.10;83.40
68476;DHT22;55464;48.266;14.188;2023-02-19T05:42:07;10.10;83.90
68476;DHT22;55464;48.266;14.188;2023-02-19T05:44:32;10.10;84.10
68476;DHT22;55464;48.266;14.188;2023-02-19T05:46:58;10.10;83.90
68476;DHT22;55464;48.266;14.188;2023-02-19T05:49:23;10.00;84.10
68476;DHT22;55464;48.266;14.188;2023-02-19T05:51:50;10.10;84.10
68476;DHT22;55464;48.266;14.188;2023-02-19T05:54:15;10.00;84.50
68476;DHT22;55464;48.266;14.188;2023-02-19T05:56:41;10.00;84.60
68476;DHT22;55464;48.266;14.188;2023-02-19T05:59:18;10.00;84.40
68476;DHT22;55464;48.266;14.188;2023-02-19T06:01:44;9.90;84.80
68476;DHT22;55464;48.266;14.188;2023-02-19T06:04:10;9.90;84.80
68476;DHT22;55464;48.266;14.188;2023-02-19T06:06:37;10.00;84.70
68476;DHT22;55464;48.266;14.188;2023-02-19T06:09:04;9.90;85.00
68476;DHT22;55464;48.266;14.188;2023-02-19T06:11:30;9.90;85.00
68476;DHT22;55464;48.266;14.188;2023-02-19T06:13:55;9.80;84.80
68476;DHT22;55464;48.266;14.188;2023-02-19T06:16:22;9.90;84.90
68476;DHT22;55464;48.266;14.188;2023-02-19T06:18:47;9.80;85.00
68476;DHT22;55464;48.266;14.188;2023-02-19T06:21:14;9.90;84.90
68476;DHT22;55464;48.266;14.188;2023-02-19T06:23:40;9.90;84.40
68476;DHT22;55464;48.266;14.188;2023-02-19T06:26:12;9.90;84.30
68476;DHT22;55464;48.266;14.188;2023-02-19T06:28:39;9.90;84.10
68476;DHT22;55464;48.266;14.188;2023-02-19T06:31:06;9.90;84.20
68476;DHT22;55464;48.266;14.188;2023-02-19T06:33:33;10.00;83.80
68476;DHT22;55464;48.266;14.188;2023-02-19T06:36:03;10.00;83.70
68476;DHT22;55464;48.266;14.188;2023-02-19T06:38:29;10.00;83.90
68476;DHT22;55464;48.266;14.188;2023-02-19T06:40:59;10.00;83.60
68476;DHT22;55464;48.266;14.188;2023-02-19T06:43:25;10.00;83.50
68476;DHT22;55464;48.266;14.188;2023-02-19T06:45:51;9.90;83.60
68476;DHT22;55464;48.266;14.188;2023-02-19T06:48:16;10.00;83.30
68476;DHT22;55464;48.266;14.188;2023-02-19T06:50:42;10.00;83.40
68476;DHT22;55464;48.266;14.188;2023-02-19T06:53:08;10.10;82.80
68476;DHT22;55464;48.266;14.188;2023-02-19T06:55:36;10.00;83.20
68476;DHT22;55464;48.266;14.188;2023-02-19T06:58:02;10.00;83.20
68476;DHT22;55464;48.266;14.188;2023-02-19T07:00:28;10.00;83.20
68476;DHT22;55464;48.266;14.188;2023-02-19T07:02:53;10.10;82.70
68476;DHT22;55464;48.266;14.188;2023-02-19T07:05:21;10.10;82.70
68476;DHT22;55464;48.266;14.188;2023-02-19T07:07:47;10.10;82.60
68476;DHT22;55464;48.266;14.188;2023-02-19T07:10:14;10.00;82.60
68476;DHT22;55464;48.266;14.188;2023-02-19T07:12:39;10.10;82.70
68476;DHT22;55464;48.266;14.188;2023-02-19T07:15:05;10.00;82.80
68476;DHT22;55464;48.266;14.188;2023-02-19T07:17:33;10.10;82.50
68476;DHT22;55464;48.266;14.188;2023-02-19T07:19:58;10.10;82.60
68476;DHT22;55464;48.266;14.188;2023-02-19T07:22:24;10.00;82.80
68476;DHT22;55464;48.266;14.188;2023-02-19T07:24:50;10.10;82.50
68476;DHT22;55464;48.266;14.188;2023-02-19T07:27:16;10.10;82.60
68476;DHT22;55464;48.266;14.188;2023-02-19T07:29:41;10.10;82.40
68476;DHT22;55464;48.266;14.188;2023-02-19T07:32:07;10.30;82.30
68476;DHT22;55464;48.266;14.188;2023-02-19T07:34:32;10.20;82.00
68476;DHT22;55464;48.266;14.188;2023-02-19T07:36:58;10.30;82.20
68476;DHT22;55464;48.266;14.188;2023-02-19T07:39:24;10.30;82.00
68476;DHT22;55464;48.266;14.188;2023-02-19T07:41:49;10.30;81.50
68476;DHT22;55464;48.266;14.188;2023-02-19T07:44:15;10.30;81.70
68476;DHT22;55464;48.266;14.188;2023-02-19T07:46:41;10.30;81.90
68476;DHT22;55464;48.266;14.188;2023-02-19T07:49:07;10.30;82.10
68476;DHT22;55464;48.266;14.188;2023-02-19T07:51:33;10.40;81.40
68476;DHT22;55464;48.266;14.188;2023-02-19T07:53:59;10.40;81.40
68476;DHT22;55464;48.266;14.188;2023-02-19T07:56:25;10.40;81.50
68476;DHT22;55464;48.266;14.188;2023-02-19T07:58:53;10.30;82.20
68476;DHT22;55464;48.266;14.188;2023-02-19T08:01:21;10.30;82.10
68476;DHT22;55464;48.266;14.188;2023-02-19T08:04:11;10.30;82.30
68476;DHT22;55464;48.266;14.188;2023-02-19T08:06:37;10.20;82.30
68476;DHT22;55464;48.266;14.188;2023-02-19T08:09:04;10.20;82.20
68476;DHT22;55464;48.266;14.188;2023-02-19T08:11:30;10.20;82.70
68476;DHT22;55464;48.266;14.188;2023-02-19T08:14:14;10.30;82.80
68476;DHT22;55464;48.266;14.188;2023-02-19T08:16:42;10.10;84.00
68476;DHT22;55464;48.266;14.188;2023-02-19T08:19:12;10.10;84.40
68476;DHT22;55464;48.266;14.188;2023-02-19T08:21:37;10.10;84.00
68476;DHT22;55464;48.266;14.188;2023-02-19T08:24:03;10.10;84.40
68476;DHT22;55464;48.266;14.188;2023-02-19T08:26:29;10.10;85.00
68476;DHT22;55464;48.266;14.188;2023-02-19T08:28:55;10.00;85.60
68476;DHT22;55464;48.266;14.188;2023-02-19T08:31:20;9.90;86.20
68476;DHT22;55464;48.266;14.188;2023-02-19T08:33:46;10.00;86.00
68476;DHT22;55464;48.266;14.188;2023-02-19T08:36:11;9.90;86.10
68476;DHT22;55464;48.266;14.188;2023-02-19T08:38:37;10.00;85.90
68476;DHT22;55464;48.266;14.188;2023-02-19T08:41:07;9.90;86.00
68476;DHT22;55464;48.266;14.188;2023-02-19T08:43:34;10.00;86.10
68476;DHT22;55464;48.266;14.188;2023-02-19T08:45:59;9.80;86.40
68476;DHT22;55464;48.266;14.188;2023-02-19T08:48:25;9.80;86.70
68476;DHT22;55464;48.266;14.188;2023-02-19T08:50:59;9.70;87.00
68476;DHT22;55464;48.266;14.188;2023-02-19T08:53:29;9.70;86.90
68476;DHT22;55464;48.266;14.188;2023-02-19T08:55:55;9.70;84.50
68476;DHT22;55464;48.266;14.188;2023-02-19T08:58:21;9.60;83.60
68476;DHT22;55464;48.266;14.188;2023-02-19T09:00:47;9.50;83.60
68476;DHT22;55464;48.266;14.188;2023-02-19T09:03:13;9.60;83.50
68476;DHT22;55464;48.266;14.188;2023-02-19T09:05:39;9.40;84.60
68476;DHT22;55464;48.266;14.188;2023-02-19T09:08:05;9.40;84.70
68476;DHT22;55464;48.266;14.188;2023-02-19T09:10:30;9.50;85.10
68476;DHT22;55464;48.266;14.188;2023-02-19T09:12:56;9.50;85.30
68476;DHT22;55464;48.266;14.188;2023-02-19T09:15:22;9.60;85.60
68476;DHT22;55464;48.266;14.188;2023-02-19T09:17:51;9.60;85.50
68476;DHT22;55464;48.266;14.188;2023-02-19T09:20:17;9.70;85.30
68476;DHT22;55464;48.266;14.188;2023-02-19T09:22:43;9.80;84.60
68476;DHT22;55464;48.266;14.188;2023-02-19T09:25:09;9.90;84.90
68476;DHT22;55464;48.266;14.188;2023-02-19T09:27:34;10.00;83.80
68476;DHT22;55464;48.266;14.188;2023-02-19T09:30:00;10.10;83.70
68476;DHT22;55464;48.266;14.188;2023-02-19T09:32:28;10.30;82.60
68476;DHT22;55464;48.266;14.188;2023-02-19T09:34:54;10.30;80.90
68476;DHT22;55464;48.266;14.188;2023-02-19T09:37:24;10.30;81.10
68476;DHT22;55464;48.266;14.188;2023-02-19T09:39:50;10.40;80.60
68476;DHT22;55464;48.266;14.188;2023-02-19T09:42:22;10.30;81.10
68476;DHT22;55464;48.266;14.188;2023-02-19T09:44:51;10.40;80.90
68476;DHT22;55464;48.266;14.188;2023-02-19T09:47:22;10.40;79.80
68476;DHT22;55464;48.266;14.188;2023-02-19T09:49:51;10.40;79.70
68476;DHT22;55464;48.266;14.188;2023-02-19T09:52:26;10.50;79.70
68476;DHT22;55464;48.266;14.188;2023-02-19T09:54:54;10.50;79.40
68476;DHT22;55464;48.266;14.188;2023-02-19T09:57:23;10.50;78.70
68476;DHT22;55464;48.266;14.188;2023-02-19T09:59:55;10.60;79.00
68476;DHT22;55464;48.266;14.188;2023-02-19T10:02:25;10.60;78.50
68476;DHT22;55464;48.266;14.188;2023-02-19T10:04:52;10.60;77.90
68476;DHT22;55464;48.266;14.188;2023-02-19T10:07:36;10.70;78.00
68476;DHT22;55464;48.266;14.188;2023-02-19T10:10:27;10.80;78.00
68476;DHT22;55464;48.266;14.188;2023-02-19T10:12:58;11.00;78.10
68476;DHT22;55464;48.266;14.188;2023-02-19T10:16:02;11.00;78.20
68476;DHT22;55464;48.266;14.188;2023-02-19T10:18:37;11.00;78.40
68476;DHT22;55464;48.266;14.188;2023-02-19T10:21:05;11.00;76.20
68476;DHT22;55464;48.266;14.188;2023-02-19T10:23:31;11.10;76.50
68476;DHT22;55464;48.266;14.188;2023-02-19T10:25:59;11.20;76.40
68476;DHT22;55464;48.266;14.188;2023-02-19T10:28:30;11.30;76.10
68476;DHT22;55464;48.266;14.188;2023-02-19T10:30:59;11.30;76.10
68476;DHT22;55464;48.266;14.188;2023-02-19T10:33:25;11.30;74.30
68476;DHT22;55464;48.266;14.188;2023-02-19T10:36:04;11.10;75.10
68476;DHT22;55464;48.266;14.188;2023-02-19T10:38:37;11.20;75.20
68476;DHT22;55464;48.266;14.188;2023-02-19T10:41:13;11.30;74.90
68476;DHT22;55464;48.266;14.188;2023-02-19T10:43:48;11.30;74.60
68476;DHT22;55464;48.266;14.188;2023-02-19T10:48:53;11.40;75.20
68476;DHT22;55464;48.266;14.188;2023-02-19T10:51:20;11.40;75.30
68476;DHT22;55464;48.266;14.188;2023-02-19T10:53:50;11.50;73.90
68476;DHT22;55464;48.266;14.188;2023-02-19T10:56:24;11.50;73.60
68476;DHT22;55464;48.266;14.188;2023-02-19T10:58:50;11.40;73.00
68476;DHT22;55464;48.266;14.188;2023-02-19T11:01:19;11.40;72.10
68476;DHT22;55464;48.266;14.188;2023-02-19T11:03:49;11.30;72.80
68476;DHT22;55464;48.266;14.188;2023-02-19T11:06:20;11.30;71.90
68476;DHT22;55464;48.266;14.188;2023-02-19T11:08:59;11.20;73.30
68476;DHT22;55464;48.266;14.188;2023-02-19T11:11:34;11.10;74.10
68476;DHT22;55464;48.266;14.188;2023-02-19T11:14:14;11.00;73.50
68476;DHT22;55464;48.266;14.188;2023-02-19T11:16:48;10.90;74.00
68476;DHT22;55464;48.266;14.188;2023-02-19T11:19:36;10.80;74.40
68476;DHT22;55464;48.266;14.188;2023-02-19T11:24:54;10.80;74.10
68476;DHT22;55464;48.266;14.188;2023-02-19T11:27:22;10.70;74.50
68476;DHT22;55464;48.266;14.188;2023-02-19T11:29:48;10.60;74.90
68476;DHT22;55464;48.266;14.188;2023-02-19T11:32:23;10.60;75.90
68476;DHT22;55464;48.266;14.188;2023-02-19T11:34:51;10.50;76.30
68476;DHT22;55464;48.266;14.188;2023-02-19T11:37:19;10.50;77.40
68476;DHT22;55464;48.266;14.188;2023-02-19T11:39:49;10.50;78.10
68476;DHT22;55464;48.266;14.188;2023-02-19T11:42:41;10.50;78.10
68476;DHT22;55464;48.266;14.188;2023-02-19T11:53:25;10.30;79.70
68476;DHT22;55464;48.266;14.188;2023-02-19T11:56:19;10.20;78.10
68476;DHT22;55464;48.266;14.188;2023-02-19T11:59:04;10.10;78.10
68476;DHT22;55464;48.266;14.188;2023-02-19T12:01:52;10.00;77.70
68476;DHT22;55464;48.266;14.188;2023-02-19T12:44:41;13.50;66.20
68476;DHT22;55464;48.266;14.188;2023-02-19T12:47:15;13.40;65.60
68476;DHT22;55464;48.266;14.188;2023-02-19T12:49:57;13.60;66.20
68476;DHT22;55464;48.266;14.188;2023-02-19T12:52:27;13.10;65.00
68476;DHT22;55464;48.266;14.188;2023-02-19T12:55:01;13.30;63.90
68476;DHT22;55464;48.266;14.188;2023-02-19T12:57:33;13.20;65.30
68476;DHT22;55464;48.266;14.188;2023-02-19T13:02:49;12.50;66.50
68476;DHT22;55464;48.266;14.188;2023-02-19T13:10:50;12.70;66.20
68476;DHT22;55464;48.266;14.188;2023-02-19T13:13:31;12.40;64.70
68476;DHT22;55464;48.266;14.188;2023-02-19T13:16:05;12.10;65.50
68476;DHT22;55464;48.266;14.188;2023-02-19T13:19:11;11.80;66.40
68476;DHT22;55464;48.266;14.188;2023-02-19T13:21:40;11.70;66.30
68476;DHT22;55464;48.266;14.188;2023-02-19T13:24:32;11.60;66.10
68476;DHT22;55464;48.266;14.188;2023-02-19T13:29:50;11.60;64.50
68476;DHT22;55464;48.266;14.188;2023-02-19T13:35:19;11.60;64.10
68476;DHT22;55464;48.266;14.188;2023-02-19T13:37:46;11.60;65.40
68476;DHT22;55464;48.266;14.188;2023-02-19T13:42:58;11.70;64.70
68476;DHT22;55464;48.266;14.188;2023-02-19T13:45:38;11.80;63.30
68476;DHT22;55464;48.266;14.188;2023-02-19T14:04:45;11.60;64.70
68476;DHT22;55464;48.266;14.188;2023-02-19T14:09:42;11.50;64.00
68476;DHT22;55464;48.266;14.188;2023-02-19T14:25:37;11.50;64.40
68476;DHT22;55464;48.266;14.188;2023-02-19T14:28:23;11.50;64.20
68476;DHT22;55464;48.266;14.188;2023-02-19T14:33:18;11.50;64.50
68476;DHT22;55464;48.266;14.188;2023-02-19T14:35:50;11.40;64.10
68476;DHT22;55464;48.266;14.188;2023-02-19T14:38:36;11.50;64.10
68476;DHT22;55464;48.266;14.188;2023-02-19T14:41:04;11.50;64.10
68476;DHT22;55464;48.266;14.188;2023-02-19T14:43:32;11.50;63.90
68476;DHT22;55464;48.266;14.188;2023-02-19T14:46:21;11.40;64.20
68476;DHT22;55464;48.266;14.188;2023-02-19T14:48:49;11.40;64.70
68476;DHT22;55464;48.266;14.188;2023-02-19T14:53:56;11.30;64.50
68476;DHT22;55464;48.266;14.188;2023-02-19T14:56:30;11.20;65.10
68476;DHT22;55464;48.266;14.188;2023-02-19T15:01:36;11.30;65.30
68476;DHT22;55464;48.266;14.188;2023-02-19T15:04:02;11.20;65.70
68476;DHT22;55464;48.266;14.188;2023-02-19T15:06:29;11.10;65.80
68476;DHT22;55464;48.266;14.188;2023-02-19T15:09:02;11.10;65.70
68476;DHT22;55464;48.266;14.188;2023-02-19T15:11:30;11.10;65.80
68476;DHT22;55464;48.266;14.188;2023-02-19T15:14:05;11.00;66.20
68476;DHT22;55464;48.266;14.188;2023-02-19T15:16:33;11.10;66.60
68476;DHT22;55464;48.266;14.188;2023-02-19T15:19:03;11.00;66.20
68476;DHT22;55464;48.266;14.188;2023-02-19T15:21:34;11.00;64.80
68476;DHT22;55464;48.266;14.188;2023-02-19T15:24:03;11.00;65.20
68476;DHT22;55464;48.266;14.188;2023-02-19T15:26:41;11.00;64.60
68476;DHT22;55464;48.266;14.188;2023-02-19T15:29:16;11.00;64.90
68476;DHT22;55464;48.266;14.188;2023-02-19T15:31:56;11.00;65.20
68476;DHT22;55464;48.266;14.188;2023-02-19T15:34:27;10.90;65.50
68476;DHT22;55464;48.266;14.188;2023-02-19T15:37:02;11.00;65.30
68476;DHT22;55464;48.266;14.188;2023-02-19T15:42:01;10.90;64.80
68476;DHT22;55464;48.266;14.188;2023-02-19T15:47:04;10.90;67.00
68476;DHT22;55464;48.266;14.188;2023-02-19T15:50:07;10.70;71.00
68476;DHT22;55464;48.266;14.188;2023-02-19T15:52:49;10.30;75.40
68476;DHT22;55464;48.266;14.188;2023-02-19T15:55:39;10.00;77.30
68476;DHT22;55464;48.266;14.188;2023-02-19T16:01:22;9.90;77.70
68476;DHT22;55464;48.266;14.188;2023-02-19T16:03:50;9.70;77.60
68476;DHT22;55464;48.266;14.188;2023-02-19T16:06:18;9.80;77.90
68476;DHT22;55464;48.266;14.188;2023-02-19T16:09:05;9.70;77.90
68476;DHT22;55464;48.266;14.188;2023-02-19T16:19:45;9.80;77.40
68476;DHT22;55464;48.266;14.188;2023-02-19T16:22:12;9.80;77.20
68476;DHT22;55464;48.266;14.188;2023-02-19T16:24:43;9.90;77.40
68476;DHT22;55464;48.266;14.188;2023-02-19T16:27:11;9.80;77.00
68476;DHT22;55464;48.266;14.188;2023-02-19T16:29:38;9.90;77.40
68476;DHT22;55464;48.266;14.188;2023-02-19T16:32:06;9.80;77.80
68476;DHT22;55464;48.266;14.188;2023-02-19T16:34:39;9.80;77.50
68476;DHT22;55464;48.266;14.188;2023-02-19T16:45:13;9.90;76.50
68476;DHT22;55464;48.266;14.188;2023-02-19T16:47:39;9.80;76.70
68476;DHT22;55464;48.266;14.188;2023-02-19T16:50:15;9.90;76.00
68476;DHT22;55464;48.266;14.188;2023-02-19T16:52:58;9.90;75.50
68476;DHT22;55464;48.266;14.188;2023-02-19T16:55:25;9.90;74.50
68476;DHT22;55464;48.266;14.188;2023-02-19T16:57:51;9.80;74.60
68476;DHT22;55464;48.266;14.188;2023-02-19T17:00:25;9.90;73.50
68476;DHT22;55464;48.266;14.188;2023-02-19T17:02:57;10.00;72.60
68476;DHT22;55464;48.266;14.188;2023-02-19T17:05:26;10.10;71.00
68476;DHT22;55464;48.266;14.188;2023-02-19T17:07:52;10.00;71.50
68476;DHT22;55464;48.266;14.188;2023-02-19T17:10:23;10.00;71.10
68476;DHT22;55464;48.266;14.188;2023-02-19T17:12:53;10.00;71.20
68476;DHT22;55464;48.266;14.188;2023-02-19T17:15:20;10.00;69.50
68476;DHT22;55464;48.266;14.188;2023-02-19T17:17:46;10.10;69.00
68476;DHT22;55464;48.266;14.188;2023-02-19T17:22:40;10.10;68.80
68476;DHT22;55464;48.266;14.188;2023-02-19T17:25:06;10.00;69.50
68476;DHT22;55464;48.266;14.188;2023-02-19T17:27:32;10.00;69.40
68476;DHT22;55464;48.266;14.188;2023-02-19T17:29:57;10.00;69.60
68476;DHT22;55464;48.266;14.188;2023-02-19T17:32:23;10.00;69.40
68476;DHT22;55464;48.266;14.188;2023-02-19T17:34:49;10.00;69.30
68476;DHT22;55464;48.266;14.188;2023-02-19T17:37:15;10.00;69.00
68476;DHT22;55464;48.266;14.188;2023-02-19T17:39:40;10.00;68.80
68476;DHT22;55464;48.266;14.188;2023-02-19T17:42:06;9.90;69.80
68476;DHT22;55464;48.266;14.188;2023-02-19T17:44:32;9.80;69.70
68476;DHT22;55464;48.266;14.188;2023-02-19T17:46:57;9.80;69.90
68476;DHT22;55464;48.266;14.188;2023-02-19T17:49:23;9.80;70.70
68476;DHT22;55464;48.266;14.188;2023-02-19T17:51:48;9.80;71.20
68476;DHT22;55464;48.266;14.188;2023-02-19T17:54:14;9.80;71.80
68476;DHT22;55464;48.266;14.188;2023-02-19T17:56:40;9.70;72.20
68476;DHT22;55464;48.266;14.188;2023-02-19T17:59:08;9.60;72.40
68476;DHT22;55464;48.266;14.188;2023-02-19T18:01:35;9.60;72.60
68476;DHT22;55464;48.266;14.188;2023-02-19T18:04:01;9.70;72.50
68476;DHT22;55464;48.266;14.188;2023-02-19T18:06:26;9.70;72.80
68476;DHT22;55464;48.266;14.188;2023-02-19T18:08:52;9.70;72.50
68476;DHT22;55464;48.266;14.188;2023-02-19T18:11:19;9.70;72.60
68476;DHT22;55464;48.266;14.188;2023-02-19T18:13:50;9.70;73.10
68476;DHT22;55464;48.266;14.188;2023-02-19T18:16:16;9.60;73.00
68476;DHT22;55464;48.266;14.188;2023-02-19T18:18:42;9.70;73.00
68476;DHT22;55464;48.266;14.188;2023-02-19T18:21:09;9.70;72.60
68476;DHT22;55464;48.266;14.188;2023-02-19T18:23:35;9.60;71.90